createdAt,value
2022-10-05T00:00:51.591Z,4.80
2022-10-05T00:03:18.242Z,5.30
2022-10-05T00:05:46.025Z,4.93
2022-10-05T00:08:22.894Z,4.47
2022-10-05T00:10:50.661Z,4.00
2022-10-05T00:13:23.324Z,5.40
2022-10-05T00:15:50.411Z,4.70
2022-10-05T00:18:20.050Z,5.50
2022-10-05T00:20:48.579Z,4.33
2022-10-05T00:23:21.425Z,4.23
2022-10-05T00:25:48.038Z,5.30
2022-10-05T00:28:30.345Z,4.67
2022-10-05T00:30:58.944Z,5.97
2022-10-05T00:33:26.850Z,4.60
2022-10-05T00:35:54.478Z,5.00
2022-10-05T00:38:21.331Z,3.87
2022-10-05T00:41:08.191Z,4.40
2022-10-05T00:44:07.478Z,5.53
2022-10-05T00:47:18.484Z,4.73
2022-10-05T00:49:54.079Z,5.50
2022-10-05T00:52:57.982Z,4.50
2022-10-05T00:55:50.819Z,6.10
2022-10-05T00:58:35.993Z,4.50
2022-10-05T01:01:08.822Z,4.63
2022-10-05T01:04:14.321Z,4.80
2022-10-05T01:07:16.147Z,5.00
2022-10-05T01:09:53.699Z,4.90
2022-10-05T01:12:34.536Z,5.30
2022-10-05T01:15:10.959Z,4.40
2022-10-05T01:17:49.511Z,5.13
2022-10-05T01:20:53.879Z,4.73
2022-10-05T01:23:39.050Z,4.60
2022-10-05T01:26:30.055Z,4.83
2022-10-05T01:29:10.037Z,4.87
2022-10-05T01:31:42.961Z,4.97
2022-10-05T01:34:34.867Z,4.97
2022-10-05T01:37:20.679Z,5.57
2022-10-05T01:39:57.759Z,5.60
2022-10-05T01:43:02.200Z,5.33
2022-10-05T01:45:43.718Z,4.97
2022-10-05T01:48:39.626Z,5.60
2022-10-05T01:51:21.688Z,4.63
2022-10-05T01:54:20.445Z,4.40
2022-10-05T01:57:00.915Z,5.10
2022-10-05T01:59:49.082Z,5.07
2022-10-05T02:02:21.299Z,5.40
2022-10-05T02:05:01.883Z,5.07
2022-10-05T02:07:58.609Z,5.90
2022-10-05T02:10:30.272Z,4.90
2022-10-05T02:13:18.457Z,5.40
2022-10-05T02:15:52.742Z,5.87
2022-10-05T02:18:28.787Z,6.03
2022-10-05T02:20:57.019Z,5.27
2022-10-05T02:23:27.506Z,5.70
2022-10-05T02:25:56.047Z,4.30
2022-10-05T02:28:38.347Z,4.93
2022-10-05T02:31:10.367Z,5.03
2022-10-05T02:33:37.346Z,5.80
2022-10-05T02:36:23.718Z,5.10
2022-10-05T02:39:14.818Z,5.13
2022-10-05T02:41:54.959Z,5.10
2022-10-05T02:44:40.477Z,5.60
2022-10-05T02:47:17.138Z,5.20
2022-10-05T02:49:59.258Z,5.40
2022-10-05T02:52:41.388Z,5.00
2022-10-05T02:55:26.572Z,5.10
2022-10-05T02:58:15.819Z,5.70
2022-10-05T03:01:02.071Z,5.37
2022-10-05T03:03:42.993Z,5.40
2022-10-05T03:06:20.614Z,5.37
2022-10-05T03:08:58.029Z,4.97
2022-10-05T03:11:46.421Z,4.80
2022-10-05T03:14:31.219Z,6.10
2022-10-05T03:17:10.730Z,5.03
2022-10-05T03:20:16.125Z,5.77
2022-10-05T03:22:58.667Z,5.50
2022-10-05T03:25:53.997Z,5.33
2022-10-05T03:28:30.462Z,4.27
2022-10-05T03:31:04.662Z,5.80
2022-10-05T03:33:43.571Z,5.20
2022-10-05T03:36:30.381Z,5.33
2022-10-05T03:39:12.038Z,5.93
2022-10-05T03:41:54.988Z,5.97
2022-10-05T03:44:36.591Z,5.47
2022-10-05T03:47:08.763Z,4.80
2022-10-05T03:50:26.095Z,5.53
2022-10-05T03:52:59.925Z,5.07
2022-10-05T03:55:36.760Z,5.90
2022-10-05T03:58:12.126Z,5.80
2022-10-05T04:00:40.352Z,5.10
2022-10-05T04:03:17.229Z,5.60
2022-10-05T04:05:51.585Z,5.77
2022-10-05T04:08:21.877Z,5.37
2022-10-05T04:11:15.951Z,5.07
2022-10-05T04:14:03.440Z,5.80
2022-10-05T04:16:37.874Z,5.70
2022-10-05T04:19:29.678Z,4.63
2022-10-05T04:22:15.595Z,5.33
2022-10-05T04:24:45.974Z,5.97
2022-10-05T04:27:17.835Z,5.43
2022-10-05T04:29:55.715Z,6.10
2022-10-05T04:32:43.569Z,5.40
2022-10-05T04:35:27.938Z,5.10
2022-10-05T04:38:25.613Z,5.33
2022-10-05T04:41:12.796Z,5.90
2022-10-05T04:44:13.319Z,5.43
2022-10-05T04:47:15.191Z,5.37
2022-10-05T04:49:56.829Z,6.40
2022-10-05T04:52:38.445Z,5.60
2022-10-05T04:55:25.182Z,5.70
2022-10-05T04:58:06.908Z,5.90
2022-10-05T05:00:43.505Z,5.47
2022-10-05T05:03:41.729Z,6.00
2022-10-05T05:06:36.596Z,5.90
2022-10-05T05:09:23.918Z,5.57
2022-10-05T05:12:56.468Z,6.53
2022-10-05T05:15:47.137Z,6.20
2022-10-05T05:18:32.158Z,6.17
2022-10-05T05:21:25.300Z,6.43
2022-10-05T05:24:01.315Z,6.20
2022-10-05T05:26:39.035Z,6.27
2022-10-05T05:29:28.207Z,6.67
2022-10-05T05:32:12.320Z,6.83
2022-10-05T05:35:03.676Z,6.37
2022-10-05T05:37:43.336Z,6.40
2022-10-05T05:40:17.426Z,5.60
2022-10-05T05:42:58.146Z,5.80
2022-10-05T05:45:46.937Z,6.10
2022-10-05T05:48:43.410Z,6.87
2022-10-05T05:51:23.600Z,6.90
2022-10-05T05:53:54.984Z,7.07
2022-10-05T05:56:34.500Z,8.07
2022-10-05T05:59:24.401Z,7.30
2022-10-05T06:02:16.590Z,7.40
2022-10-05T06:04:58.490Z,7.50
2022-10-05T06:07:31.242Z,7.30
2022-10-05T06:10:21.776Z,6.93
2022-10-05T06:12:52.437Z,7.33
2022-10-05T06:15:31.072Z,7.17
2022-10-05T06:18:01.308Z,7.63
2022-10-05T06:20:38.289Z,7.90
2022-10-05T06:23:13.094Z,8.10
2022-10-05T06:25:45.457Z,7.27
2022-10-05T06:28:13.725Z,7.00
2022-10-05T06:30:57.921Z,7.80
2022-10-05T06:33:54.487Z,7.20
2022-10-05T06:36:33.024Z,6.60
2022-10-05T06:39:32.343Z,7.27
2022-10-05T06:42:39.779Z,7.90
2022-10-05T06:45:29.260Z,7.53
2022-10-05T06:48:19.929Z,6.50
2022-10-05T06:50:54.049Z,7.47
2022-10-05T06:53:46.177Z,7.50
2022-10-05T06:56:22.708Z,6.60
2022-10-05T06:59:10.553Z,6.60
2022-10-05T07:01:50.931Z,6.80
2022-10-05T07:04:48.664Z,7.53
2022-10-05T07:07:34.874Z,7.77
2022-10-05T07:10:20.277Z,6.87
2022-10-05T07:12:58.675Z,7.33
2022-10-05T07:15:36.370Z,7.57
2022-10-05T07:18:28.989Z,8.30
2022-10-05T07:21:20.112Z,7.20
2022-10-05T07:24:04.291Z,6.67
2022-10-05T07:26:47.665Z,6.60
2022-10-05T07:29:24.372Z,7.20
2022-10-05T07:32:00.530Z,6.73
2022-10-05T07:34:29.868Z,7.10
2022-10-05T07:37:27.327Z,7.87
2022-10-05T07:40:09.218Z,7.30
2022-10-05T07:43:06.951Z,7.07
2022-10-05T07:45:46.684Z,7.20
2022-10-05T07:48:33.002Z,6.30
2022-10-05T07:51:25.740Z,6.47
2022-10-05T07:54:17.981Z,7.67
2022-10-05T07:56:49.472Z,6.10
2022-10-05T07:59:28.637Z,6.27
2022-10-05T08:02:07.619Z,6.93
2022-10-05T08:04:42.003Z,6.23
2022-10-05T08:07:15.759Z,7.93
2022-10-05T08:09:54.708Z,7.67
2022-10-05T08:12:33.782Z,6.83
2022-10-05T08:15:09.967Z,7.23
2022-10-05T08:18:00.680Z,8.00
2022-10-05T08:20:33.591Z,7.20
2022-10-05T08:23:17.436Z,6.73
2022-10-05T08:26:11.128Z,7.00
2022-10-05T08:28:42.648Z,7.33
2022-10-05T08:31:18.796Z,7.17
2022-10-05T08:34:00.602Z,7.13
2022-10-05T08:36:53.876Z,7.13
2022-10-05T08:39:24.183Z,7.03
2022-10-05T08:42:07.304Z,8.57
2022-10-05T08:44:52.426Z,8.10
2022-10-05T08:47:37.196Z,7.30
2022-10-05T08:50:34.879Z,8.77
2022-10-05T08:53:20.331Z,8.23
2022-10-05T08:56:28.669Z,8.40
2022-10-05T08:59:01.782Z,7.97
2022-10-05T09:01:51.313Z,6.90
2022-10-05T09:04:35.829Z,7.33
2022-10-05T09:07:26.990Z,7.33
2022-10-05T09:10:06.302Z,8.27
2022-10-05T09:13:05.382Z,7.30
2022-10-05T09:16:10.022Z,6.90
2022-10-05T09:19:03.949Z,7.07
2022-10-05T09:21:43.347Z,7.50
2022-10-05T09:24:22.623Z,7.20
2022-10-05T09:27:04.556Z,7.77
2022-10-05T09:29:59.215Z,6.73
2022-10-05T09:32:51.658Z,6.90
2022-10-05T09:35:58.092Z,7.07
2022-10-05T09:38:33.510Z,7.90
2022-10-05T09:41:16.809Z,7.93
2022-10-05T09:44:17.272Z,8.30
2022-10-05T09:46:59.308Z,7.27
2022-10-05T09:50:05.965Z,8.10
2022-10-05T09:53:20.904Z,8.10
2022-10-05T09:56:00.243Z,7.30
2022-10-05T09:58:39.186Z,7.10
2022-10-05T10:01:32.474Z,7.60
2022-10-05T10:04:07.006Z,8.30
2022-10-05T10:07:13.419Z,6.83
2022-10-05T10:09:58.103Z,7.37
2022-10-05T10:12:35.740Z,5.63
2022-10-05T10:15:10.936Z,6.50
2022-10-05T10:18:06.894Z,7.20
2022-10-05T10:21:29.405Z,6.40
2022-10-05T10:24:20.398Z,5.67
2022-10-05T10:27:27.436Z,5.73
2022-10-05T10:30:19.255Z,6.50
2022-10-05T10:33:04.244Z,6.27
2022-10-05T10:35:37.763Z,5.93
2022-10-05T10:38:40.028Z,6.00
2022-10-05T10:41:18.245Z,6.33
2022-10-05T10:44:22.780Z,6.53
2022-10-05T10:47:27.185Z,5.20
2022-10-05T10:50:26.264Z,6.23
2022-10-05T10:53:17.554Z,6.03
2022-10-05T10:56:08.678Z,6.50
2022-10-05T10:58:56.364Z,6.43
2022-10-05T11:01:41.211Z,6.03
2022-10-05T11:04:44.721Z,5.83
2022-10-05T11:07:29.996Z,6.67
2022-10-05T11:10:03.475Z,6.43
2022-10-05T11:12:57.958Z,6.43
2022-10-05T11:15:49.262Z,5.47
2022-10-05T11:18:41.290Z,6.20
2022-10-05T11:21:30.374Z,5.53
2022-10-05T11:24:22.045Z,6.50
2022-10-05T11:27:42.037Z,5.87
2022-10-05T11:30:34.599Z,5.90
2022-10-05T11:33:04.214Z,6.27
2022-10-05T11:35:59.107Z,5.90
2022-10-05T11:38:31.479Z,5.33
2022-10-05T11:41:28.413Z,5.50
2022-10-05T11:44:07.276Z,5.33
2022-10-05T11:46:55.205Z,4.90
2022-10-05T11:49:21.797Z,5.97
2022-10-05T11:51:54.924Z,6.03
2022-10-05T11:54:28.569Z,4.63
2022-10-05T11:57:09.608Z,4.60
2022-10-05T12:00:08.443Z,4.83
2022-10-05T12:03:12.982Z,4.30
2022-10-05T12:05:57.449Z,5.63
2022-10-05T12:08:40.512Z,4.40
2022-10-05T12:11:33.345Z,4.60
2022-10-05T12:14:24.333Z,4.77
2022-10-05T12:17:01.956Z,4.70
2022-10-05T12:19:36.448Z,4.03
2022-10-05T12:22:15.386Z,4.77
2022-10-05T12:25:01.485Z,3.37
2022-10-05T12:27:51.992Z,3.20
2022-10-05T12:30:58.109Z,3.30
2022-10-05T12:33:37.256Z,3.53
2022-10-05T12:36:11.935Z,3.60
2022-10-05T12:38:46.058Z,3.77
2022-10-05T12:41:29.084Z,3.33
2022-10-05T12:43:58.752Z,3.53
2022-10-05T12:46:53.538Z,3.27
2022-10-05T12:50:03.248Z,3.93
2022-10-05T12:52:49.426Z,2.27
2022-10-05T12:55:34.775Z,3.13
2022-10-05T12:58:16.548Z,3.60
2022-10-05T13:01:14.127Z,3.47
2022-10-05T13:03:54.535Z,2.80
2022-10-05T13:06:47.695Z,3.97
2022-10-05T13:09:47.613Z,3.47
2022-10-05T13:12:30.838Z,3.73
2022-10-05T13:15:19.966Z,3.40
2022-10-05T13:17:52.803Z,3.20
2022-10-05T13:20:35.219Z,3.37
2022-10-05T13:23:04.816Z,3.30
2022-10-05T13:25:39.122Z,3.57
2022-10-05T13:28:16.797Z,3.73
2022-10-05T13:30:56.082Z,3.10
2022-10-05T13:33:49.000Z,3.23
2022-10-05T13:36:56.812Z,3.30
2022-10-05T13:39:58.052Z,3.33
2022-10-05T13:43:00.304Z,2.90
2022-10-05T13:45:39.132Z,3.57
2022-10-05T13:48:43.692Z,3.50
2022-10-05T13:51:18.272Z,3.77
2022-10-05T13:53:49.665Z,3.33
2022-10-05T13:56:22.014Z,3.23
2022-10-05T13:58:58.027Z,3.70
2022-10-05T14:02:01.123Z,2.83
2022-10-05T14:04:48.041Z,3.40
2022-10-05T14:07:53.622Z,3.20
2022-10-05T14:10:42.876Z,3.03
2022-10-05T14:13:26.759Z,4.00
2022-10-05T14:16:23.946Z,3.10
2022-10-05T14:18:55.271Z,3.23
2022-10-05T14:21:28.662Z,3.20
2022-10-05T14:23:58.679Z,3.27
2022-10-05T14:26:35.711Z,2.90
2022-10-05T14:29:14.194Z,3.17
2022-10-05T14:31:54.320Z,3.00
2022-10-05T14:34:34.589Z,3.50
2022-10-05T14:37:24.687Z,3.10
2022-10-05T14:39:56.573Z,3.73
2022-10-05T14:42:26.686Z,3.10
2022-10-05T14:45:11.482Z,3.03
2022-10-05T14:48:01.713Z,2.67
2022-10-05T14:50:31.265Z,2.87
2022-10-05T14:53:10.200Z,2.60
2022-10-05T14:55:57.740Z,2.93
2022-10-05T14:58:43.213Z,4.30
2022-10-05T15:01:24.104Z,3.40
2022-10-05T15:04:13.804Z,3.10
2022-10-05T15:07:18.202Z,2.90
2022-10-05T15:10:10.524Z,2.70
2022-10-05T15:12:46.671Z,3.00
2022-10-05T15:15:54.632Z,3.17
2022-10-05T15:18:41.873Z,2.80
2022-10-05T15:21:45.165Z,3.00
2022-10-05T15:24:22.133Z,2.93
2022-10-05T15:26:52.987Z,3.17
2022-10-05T15:29:38.159Z,2.47
2022-10-05T15:32:41.991Z,3.10
2022-10-05T15:35:44.294Z,3.17
2022-10-05T15:38:25.645Z,3.00
2022-10-05T15:41:08.277Z,2.80
2022-10-05T15:44:00.561Z,2.93
2022-10-05T15:47:02.894Z,2.90
2022-10-05T15:49:48.331Z,2.73
2022-10-05T15:52:23.814Z,2.70
2022-10-05T15:55:22.638Z,2.80
2022-10-05T15:58:08.338Z,2.70
2022-10-05T16:01:07.984Z,2.60
2022-10-05T16:03:49.246Z,2.90
2022-10-05T16:06:59.544Z,2.70
2022-10-05T16:09:36.636Z,2.70
2022-10-05T16:12:13.074Z,2.30
2022-10-05T16:14:56.575Z,3.50
2022-10-05T16:17:40.960Z,3.53
2022-10-05T16:20:49.973Z,2.67
2022-10-05T16:23:22.161Z,3.30
2022-10-05T16:26:00.992Z,2.57
2022-10-05T16:28:33.627Z,3.53
2022-10-05T16:31:19.037Z,3.60
2022-10-05T16:34:17.101Z,2.53
2022-10-05T16:37:09.332Z,2.87
2022-10-05T16:40:04.047Z,3.03
2022-10-05T16:42:53.668Z,3.57
2022-10-05T16:45:47.815Z,3.10
2022-10-05T16:48:29.175Z,3.43
2022-10-05T16:51:01.514Z,4.50
2022-10-05T16:53:43.362Z,3.40
2022-10-05T16:56:14.833Z,3.90
2022-10-05T16:58:41.403Z,2.73
2022-10-05T17:01:29.626Z,2.90
2022-10-05T17:04:35.078Z,3.60
2022-10-05T17:07:34.677Z,3.30
2022-10-05T17:10:24.794Z,3.67
2022-10-05T17:13:11.483Z,4.43
2022-10-05T17:16:00.708Z,3.53
2022-10-05T17:19:05.259Z,3.30
2022-10-05T17:21:44.757Z,3.17
2022-10-05T17:24:11.339Z,3.73
2022-10-05T17:26:57.770Z,3.37
2022-10-05T17:29:41.645Z,3.63
2022-10-05T17:32:16.624Z,3.43
2022-10-05T17:35:15.962Z,3.70
2022-10-05T17:38:15.309Z,3.83
2022-10-05T17:41:14.082Z,4.53
2022-10-05T17:44:01.414Z,3.73
2022-10-05T17:46:58.371Z,3.10
2022-10-05T17:49:34.104Z,4.67
2022-10-05T17:52:22.467Z,2.83
2022-10-05T17:55:07.970Z,3.23
2022-10-05T17:57:36.803Z,4.37
2022-10-05T18:00:34.563Z,3.47
2022-10-05T18:03:33.778Z,4.37
2022-10-05T18:06:25.571Z,2.90
2022-10-05T18:09:20.543Z,3.37
2022-10-05T18:12:03.289Z,3.30
2022-10-05T18:14:58.821Z,3.90
2022-10-05T18:17:45.450Z,3.43
2022-10-05T18:20:24.277Z,4.20
2022-10-05T18:22:53.174Z,3.10
2022-10-05T18:25:38.295Z,3.60
2022-10-05T18:28:34.764Z,3.00
2022-10-05T18:31:32.250Z,3.40
2022-10-05T18:34:10.263Z,2.90
2022-10-05T18:36:58.481Z,3.83
2022-10-05T18:39:49.813Z,2.57
2022-10-05T18:42:33.006Z,4.20
2022-10-05T18:45:21.380Z,2.30
2022-10-05T18:48:00.496Z,2.70
2022-10-05T18:50:30.133Z,2.40
2022-10-05T18:53:14.462Z,2.73
2022-10-05T18:55:53.405Z,3.17
2022-10-05T18:58:26.486Z,2.97
2022-10-05T19:00:56.568Z,2.30
2022-10-05T19:03:36.685Z,4.20
2022-10-05T19:06:13.408Z,2.73
2022-10-05T19:09:00.945Z,2.47
2022-10-05T19:11:33.218Z,2.60
2022-10-05T19:14:32.909Z,2.20
2022-10-05T19:17:18.084Z,2.40
2022-10-05T19:20:07.520Z,2.50
2022-10-05T19:22:59.718Z,3.00
2022-10-05T19:25:37.128Z,2.60
2022-10-05T19:29:06.301Z,2.77
2022-10-05T19:31:37.309Z,2.73
2022-10-05T19:34:39.623Z,2.30
2022-10-05T19:37:14.958Z,2.07
2022-10-05T19:40:04.615Z,2.30
2022-10-05T19:43:11.530Z,2.97
2022-10-05T19:45:46.767Z,2.67
2022-10-05T19:48:26.937Z,2.20
2022-10-05T19:51:01.482Z,2.77
2022-10-05T19:53:37.037Z,2.37
2022-10-05T19:56:20.361Z,3.17
2022-10-05T19:58:48.948Z,2.60
2022-10-05T20:01:36.845Z,2.50
2022-10-05T20:04:04.989Z,2.50
2022-10-05T20:06:31.759Z,2.77
2022-10-05T20:09:02.695Z,2.40
2022-10-05T20:11:29.477Z,2.47
2022-10-05T20:14:02.236Z,2.93
2022-10-05T20:16:48.663Z,3.37
2022-10-05T20:19:52.036Z,2.40
2022-10-05T20:22:27.634Z,2.80
2022-10-05T20:24:57.251Z,3.93
2022-10-05T20:27:52.098Z,3.97
2022-10-05T20:30:24.628Z,3.20
2022-10-05T20:32:56.244Z,3.73
2022-10-05T20:35:22.994Z,3.60
2022-10-05T20:37:49.989Z,3.90
2022-10-05T20:40:19.154Z,3.70
2022-10-05T20:42:46.395Z,3.23
2022-10-05T20:45:13.860Z,4.50
2022-10-05T20:47:42.082Z,3.60
2022-10-05T20:50:10.440Z,2.93
2022-10-05T20:52:38.043Z,3.07
2022-10-05T20:55:11.197Z,3.00
2022-10-05T20:57:46.033Z,3.10
2022-10-05T21:00:13.417Z,3.13
2022-10-05T21:02:40.103Z,3.10
2022-10-05T21:05:07.644Z,2.30
2022-10-05T21:07:34.634Z,3.40
2022-10-05T21:10:03.283Z,3.50
2022-10-05T21:12:30.168Z,2.80
2022-10-05T21:14:56.805Z,2.57
2022-10-05T21:17:23.541Z,2.30
2022-10-05T21:19:50.541Z,2.20
2022-10-05T21:22:17.140Z,2.50
2022-10-05T21:24:43.766Z,2.40
2022-10-05T21:27:10.392Z,2.80
2022-10-05T21:29:37.303Z,2.50
2022-10-05T21:32:08.652Z,2.27
2022-10-05T21:34:35.434Z,2.57
2022-10-05T21:37:02.096Z,3.00
2022-10-05T21:39:28.747Z,2.63
2022-10-05T21:41:55.397Z,1.80
2022-10-05T21:44:22.048Z,1.93
2022-10-05T21:46:49.175Z,2.20
2022-10-05T21:49:19.623Z,2.13
2022-10-05T21:51:47.196Z,2.37
2022-10-05T21:54:20.675Z,1.80
2022-10-05T21:56:54.624Z,2.20
2022-10-05T21:59:24.479Z,2.50
2022-10-05T22:01:51.125Z,1.87
2022-10-05T22:04:17.827Z,1.80
2022-10-05T22:06:44.471Z,2.30
2022-10-05T22:09:12.027Z,1.50
2022-10-05T22:11:38.713Z,2.03
2022-10-05T22:14:05.379Z,1.93
2022-10-05T22:16:34.564Z,2.37
2022-10-05T22:19:06.334Z,2.47
2022-10-05T22:21:37.883Z,1.80
2022-10-05T22:24:05.005Z,2.37
2022-10-05T22:26:31.902Z,1.87
2022-10-05T22:28:58.671Z,1.60
2022-10-05T22:31:25.302Z,1.50
2022-10-05T22:33:52.111Z,2.10
2022-10-05T22:36:19.351Z,2.03
2022-10-05T22:38:47.496Z,1.67
2022-10-05T22:41:17.074Z,1.40
2022-10-05T22:43:43.914Z,1.70
2022-10-05T22:46:12.247Z,1.40
2022-10-05T22:48:39.775Z,2.10
2022-10-05T22:51:07.312Z,1.80
2022-10-05T22:53:34.674Z,1.77
2022-10-05T22:56:09.287Z,2.13
2022-10-05T22:58:36.573Z,2.07
2022-10-05T23:01:06.146Z,1.53
2022-10-05T23:03:33.563Z,2.10
2022-10-05T23:06:06.053Z,1.83
2022-10-05T23:08:34.203Z,1.47
2022-10-05T23:11:06.276Z,1.47
2022-10-05T23:13:33.473Z,1.80
2022-10-05T23:16:11.742Z,1.20
2022-10-05T23:18:39.196Z,1.10
2022-10-05T23:21:08.500Z,1.40
2022-10-05T23:23:40.001Z,1.27
2022-10-05T23:26:08.457Z,1.00
2022-10-05T23:28:35.170Z,1.20
2022-10-05T23:31:06.706Z,1.10
2022-10-05T23:33:33.925Z,1.17
2022-10-05T23:36:02.125Z,0.80
2022-10-05T23:38:30.007Z,1.10
2022-10-05T23:40:58.852Z,0.90
2022-10-05T23:43:26.670Z,1.17
2022-10-05T23:45:53.608Z,0.80
2022-10-05T23:48:20.308Z,1.07
2022-10-05T23:50:47.848Z,1.40
2022-10-05T23:53:14.855Z,0.80
2022-10-05T23:55:42.041Z,0.80
2022-10-05T23:58:08.909Z,0.70
